Airfield :
LOGIN :

Register | Disclaimer

   EN    FR    IT 

 










Legend :    VFR   Marginal VFR   IFR   Intensive IFR   Very Intensive IFR
Visi :
Ceiling :
>= 8 km
>= 3000ft
5 to 8 km
1000 to 3000 ft
1500m to 5 km
500 to 1000 ft
800 to 1500m
200 to 500 ft
< 800m
< 200 ft
Symbols :   Thunderstorms  Fog  Heavy snow  Heavy precipitations  Wind > 20 kt
SIGMETs :     Misc.  Thunderstorms  Icing  Turbulence  Mountain Waves  Volcanic Ashes







- Airport Elevation : 1306 ft
- IATA code : ACH


LSZR - Alten Rhein

CURRENT METAR :
  • 171420Z 04009KT 9999 SCT040 M03/M07 Q1027 NOSIG RMK M

EXPIRED METARs :
  • 171350Z AUTO 01011KT 330V050 9999 BKN029 BKN034 M03/M07 Q1026
  • 171320Z 04009KT 9999 SCT017 M03/M08 Q1026 NOSIG RMK L
  • 171250Z 04009KT 9999 SCT017 M03/M08 Q1027 NOSIG RMK K
  • 171220Z AUTO 03010KT 350V060 9999 NCD M03/M08 Q1027
  • 171150Z 04009KT 9999 SCT017 M04/M08 Q1027 NOSIG RMK H

TAF TAF LSZR
Valid from the 17 at 15:00 until the 18 at 00:00 UTC


171425Z 1715/1724 03010KT 9999 BKN030
ATIS : +41 71 858 51 66
No reported NOTAMs for that airfield.



MET'MAP, your aeronautical weather chart ! - Copyright ORBIFLY December 2007 - Disclaimer

ORBIFLY MET'MAP TEAM :

Programming & Development : Alexandra Zaïnal
Concept & Development : Baudouin d'Aumeries
Co-Development & Prog : Marc-Olivier Méhu
Technical & hardware support : Manuel Goepfert

Contact : metmap@orbifly.com




SOURCES & CREDITS :

   NOAA